Terminal Aerodrome Forecast
Issued by NWS Wilmington, OH

Current Version | Previous Version | Graphics & Text | Print | Product List | Glossary On
Versions: 1 2 3 4 5 6 7 8 9 10 11 12 13 14 15 16 17 18 19 20
000
FTUS41 KILN 031100
TAFILN
TAF
KILN 031120Z 0312/0412 06005KT P6SM VCSH BKN070 OVC090
     FM031400 04008KT P6SM VCSH SCT025 OVC040
      TEMPO 0314/0318 5SM -RA BR OVC025
     FM040100 01004KT P6SM SCT040=

USA.gov is the U.S. government's official web portal to all federal, state and local government web resources and services.